createdAt,value
2022-08-13T00:00:45.561Z,19.40
2022-08-13T00:03:59.206Z,19.30
2022-08-13T00:06:21.573Z,19.30
2022-08-13T00:08:53.181Z,19.30
2022-08-13T00:11:59.979Z,19.20
2022-08-13T00:14:35.315Z,19.20
2022-08-13T00:17:09.090Z,19.10
2022-08-13T00:19:49.636Z,19.10
2022-08-13T00:22:30.596Z,19.00
2022-08-13T00:25:10.474Z,19.00
2022-08-13T00:28:00.918Z,19.00
2022-08-13T00:30:35.578Z,18.90
2022-08-13T00:33:14.467Z,18.90
2022-08-13T00:35:43.676Z,18.90
2022-08-13T00:38:19.907Z,18.80
2022-08-13T00:40:57.422Z,18.80
2022-08-13T00:43:33.551Z,18.80
2022-08-13T00:46:03.110Z,18.80
2022-08-13T00:48:54.300Z,18.80
2022-08-13T00:51:56.617Z,18.70
2022-08-13T00:54:18.497Z,18.70
2022-08-13T00:56:46.735Z,18.70
2022-08-13T00:59:15.550Z,18.70
2022-08-13T01:01:49.830Z,18.70
2022-08-13T01:04:27.375Z,18.60
2022-08-13T01:06:59.768Z,18.60
2022-08-13T01:10:17.136Z,18.60
2022-08-13T01:12:25.329Z,18.60
2022-08-13T01:15:01.656Z,18.60
2022-08-13T01:17:39.885Z,18.50
2022-08-13T01:20:33.409Z,18.50
2022-08-13T01:23:05.953Z,18.50
2022-08-13T01:25:52.835Z,18.50
2022-08-13T01:28:24.412Z,18.50
2022-08-13T01:30:53.816Z,18.40
2022-08-13T01:33:22.424Z,18.40
2022-08-13T01:35:54.882Z,18.30
2022-08-13T01:38:29.143Z,18.30
2022-08-13T01:40:57.205Z,18.30
2022-08-13T01:45:59.207Z,18.10
2022-08-13T01:48:59.035Z,18.10
2022-08-13T01:51:40.071Z,18.00
2022-08-13T01:54:38.739Z,18.00
2022-08-13T01:57:03.545Z,17.90
2022-08-13T02:00:00.777Z,17.90
2022-08-13T02:02:34.524Z,17.80
2022-08-13T02:05:02.454Z,17.80
2022-08-13T02:08:01.883Z,17.80
2022-08-13T02:10:23.137Z,17.70
2022-08-13T02:12:52.939Z,17.70
2022-08-13T02:15:30.439Z,17.60
2022-08-13T02:18:08.518Z,17.60
2022-08-13T02:20:41.460Z,17.60
2022-08-13T02:23:11.225Z,17.50
2022-08-13T02:25:38.165Z,17.50
2022-08-13T02:28:05.386Z,17.50
2022-08-13T02:30:40.220Z,17.40
2022-08-13T02:33:17.837Z,17.40
2022-08-13T02:35:48.097Z,17.40
2022-08-13T02:38:25.188Z,17.40
2022-08-13T02:41:16.998Z,17.30
2022-08-13T02:43:58.455Z,17.30
2022-08-13T02:46:28.197Z,17.20
2022-08-13T02:49:00.146Z,17.20
2022-08-13T02:52:08.342Z,17.10
2022-08-13T02:54:21.725Z,17.10
2022-08-13T02:56:49.616Z,17.00
2022-08-13T02:59:42.737Z,17.00
2022-08-13T03:02:06.213Z,17.00
2022-08-13T03:04:36.399Z,16.90
2022-08-13T03:07:04.639Z,16.90
2022-08-13T03:09:34.926Z,16.80
2022-08-13T03:12:10.284Z,16.90
2022-08-13T03:14:39.863Z,16.80
2022-08-13T03:17:22.910Z,16.80
2022-08-13T03:19:56.864Z,16.80
2022-08-13T03:22:27.170Z,16.80
2022-08-13T03:24:55.510Z,16.70
2022-08-13T03:27:22.645Z,16.70
2022-08-13T03:30:03.845Z,16.70
2022-08-13T03:32:48.149Z,16.70
2022-08-13T03:35:42.682Z,16.60
2022-08-13T03:38:09.432Z,16.60
2022-08-13T03:40:55.171Z,16.60
2022-08-13T03:43:25.419Z,16.60
2022-08-13T03:45:52.370Z,16.50
2022-08-13T03:48:25.781Z,16.50
2022-08-13T03:50:56.115Z,16.40
2022-08-13T03:53:31.077Z,16.30
2022-08-13T03:56:13.158Z,16.30
2022-08-13T03:58:40.961Z,16.20
2022-08-13T04:01:10.721Z,16.20
2022-08-13T04:03:41.418Z,16.10
2022-08-13T04:06:20.348Z,16.10
2022-08-13T04:08:53.541Z,16.10
2022-08-13T04:11:27.783Z,16.10
2022-08-13T04:14:06.251Z,16.10
2022-08-13T04:16:42.193Z,16.10
2022-08-13T04:19:17.373Z,16.10
2022-08-13T04:21:46.807Z,16.10
2022-08-13T04:24:15.933Z,16.10
2022-08-13T04:26:47.322Z,16.10
2022-08-13T04:29:17.903Z,16.10
2022-08-13T04:31:51.172Z,16.10
2022-08-13T04:34:37.509Z,16.10
2022-08-13T04:37:20.855Z,16.10
2022-08-13T04:40:06.781Z,16.10
2022-08-13T04:42:50.069Z,16.10
2022-08-13T04:45:19.084Z,16.20
2022-08-13T04:47:50.921Z,16.20
2022-08-13T04:50:18.983Z,16.30
2022-08-13T04:52:49.608Z,16.30
2022-08-13T04:55:18.335Z,16.40
2022-08-13T04:57:56.233Z,16.50
2022-08-13T05:00:36.601Z,16.60
2022-08-13T05:03:18.334Z,16.70
2022-08-13T05:05:49.868Z,16.80
2022-08-13T05:08:18.021Z,16.90
2022-08-13T05:10:50.033Z,17.00
2022-08-13T05:13:37.282Z,17.10
2022-08-13T05:16:13.748Z,17.20
2022-08-13T05:18:45.414Z,17.20
2022-08-13T05:21:18.756Z,17.20
2022-08-13T05:26:07.529Z,17.30
2022-08-13T05:26:57.660Z,17.30
2022-08-13T05:31:58.591Z,17.50
2022-08-13T05:34:30.587Z,17.60
2022-08-13T05:38:14.765Z,17.70
2022-08-13T05:39:49.435Z,17.70
2022-08-13T05:42:26.671Z,17.80
2022-08-13T05:44:57.892Z,17.90
2022-08-13T05:47:25.704Z,17.90
2022-08-13T05:49:57.828Z,18.00
2022-08-13T05:52:34.698Z,18.00
2022-08-13T05:56:08.377Z,18.00
2022-08-13T05:58:01.874Z,18.10
2022-08-13T06:00:58.894Z,18.10
2022-08-13T06:04:31.856Z,18.20
2022-08-13T06:06:34.538Z,18.30
2022-08-13T06:09:09.270Z,18.40
2022-08-13T06:12:25.708Z,18.50
2022-08-13T06:14:39.427Z,18.50
2022-08-13T06:17:12.642Z,18.60
2022-08-13T06:19:45.228Z,18.70
2022-08-13T06:22:21.505Z,18.80
2022-08-13T06:24:54.077Z,18.90
2022-08-13T06:27:55.179Z,18.90
2022-08-13T06:30:27.310Z,19.00
2022-08-13T06:34:07.043Z,19.00
2022-08-13T06:35:58.902Z,19.10
2022-08-13T06:38:50.718Z,19.10
2022-08-13T06:41:23.058Z,19.20
2022-08-13T06:44:02.548Z,19.30
2022-08-13T06:46:31.651Z,19.40
2022-08-13T06:49:02.150Z,19.50
2022-08-13T06:51:37.141Z,19.70
2022-08-13T06:54:17.390Z,19.80
2022-08-13T06:56:59.761Z,19.90
2022-08-13T07:00:04.492Z,20.10
2022-08-13T07:02:29.852Z,20.30
2022-08-13T07:04:59.442Z,20.50
2022-08-13T07:07:27.765Z,20.70
2022-08-13T07:09:57.249Z,20.80
2022-08-13T07:12:26.067Z,21.00
2022-08-13T07:14:58.473Z,21.10
2022-08-13T07:17:35.201Z,21.20
2022-08-13T07:20:07.650Z,21.40
2022-08-13T07:24:38.503Z,21.50
2022-08-13T07:25:57.822Z,21.70
2022-08-13T07:28:26.358Z,22.00
2022-08-13T07:31:10.847Z,22.20
2022-08-13T07:33:55.035Z,22.40
2022-08-13T07:36:32.010Z,22.60
2022-08-13T07:39:06.671Z,22.80
2022-08-13T07:42:03.549Z,23.00
2022-08-13T07:44:37.407Z,23.20
2022-08-13T07:47:12.241Z,23.40
2022-08-13T07:49:46.371Z,23.60
2022-08-13T07:52:16.554Z,23.70
2022-08-13T07:54:49.759Z,23.90
2022-08-13T07:57:27.506Z,24.00
2022-08-13T08:00:17.633Z,24.10
2022-08-13T08:02:46.902Z,24.30
2022-08-13T08:05:21.380Z,24.40
2022-08-13T08:08:05.679Z,24.50
2022-08-13T08:10:39.500Z,24.70
2022-08-13T08:13:14.446Z,24.80
2022-08-13T08:16:02.957Z,25.00
2022-08-13T08:19:00.878Z,25.20
2022-08-13T08:24:03.692Z,25.40
2022-08-13T08:24:23.395Z,25.60
2022-08-13T08:27:01.644Z,25.70
2022-08-13T08:29:34.411Z,26.00
2022-08-13T08:32:09.600Z,26.20
2022-08-13T08:34:41.789Z,26.60
2022-08-13T08:37:34.552Z,27.00
2022-08-13T08:40:30.399Z,27.60
2022-08-13T08:43:22.312Z,28.20
2022-08-13T08:46:10.954Z,28.90
2022-08-13T08:48:43.177Z,29.60
2022-08-13T08:51:19.453Z,30.20
2022-08-13T08:54:11.012Z,30.70
2022-08-13T08:56:37.179Z,31.20
2022-08-13T08:59:21.661Z,31.60
2022-08-13T09:02:00.823Z,32.00
2022-08-13T09:04:46.732Z,32.40
2022-08-13T09:07:21.728Z,32.90
2022-08-13T09:09:57.250Z,33.30
2022-08-13T09:12:28.532Z,33.60
2022-08-13T09:14:58.496Z,33.90
2022-08-13T09:17:34.218Z,34.20
2022-08-13T09:20:16.663Z,34.40
2022-08-13T09:22:54.324Z,34.50
2022-08-13T09:25:26.144Z,34.50
2022-08-13T09:28:11.303Z,34.30
2022-08-13T09:30:48.986Z,34.20
2022-08-13T09:33:49.470Z,34.30
2022-08-13T09:36:16.849Z,34.50
2022-08-13T09:38:51.274Z,34.80
2022-08-13T09:41:39.481Z,35.20
2022-08-13T09:44:10.062Z,35.60
2022-08-13T09:46:52.169Z,35.90
2022-08-13T09:49:21.496Z,36.20
2022-08-13T09:52:18.728Z,36.50
2022-08-13T09:54:47.349Z,36.60
2022-08-13T09:57:21.510Z,36.50
2022-08-13T09:59:57.464Z,36.30
2022-08-13T10:02:25.303Z,36.10
2022-08-13T10:04:54.216Z,35.90
2022-08-13T10:07:24.121Z,35.80
2022-08-13T10:10:22.058Z,35.70
2022-08-13T10:12:40.333Z,35.80
2022-08-13T10:15:23.950Z,36.10
2022-08-13T10:17:54.855Z,36.50
2022-08-13T10:20:34.855Z,37.00
2022-08-13T10:23:05.423Z,37.40
2022-08-13T10:25:48.185Z,37.80
2022-08-13T10:28:32.820Z,38.20
2022-08-13T10:31:46.826Z,38.50
2022-08-13T10:33:59.238Z,38.80
2022-08-13T10:36:34.458Z,38.90
2022-08-13T10:39:09.838Z,38.90
2022-08-13T10:42:00.023Z,38.90
2022-08-13T10:44:28.540Z,38.90
2022-08-13T10:46:55.851Z,38.80
2022-08-13T10:49:23.722Z,38.70
2022-08-13T10:52:01.539Z,38.50
2022-08-13T10:54:32.130Z,38.20
2022-08-13T10:57:00.129Z,38.00
2022-08-13T10:59:27.303Z,37.90
2022-08-13T11:01:54.248Z,37.90
2022-08-13T11:04:25.020Z,37.80
2022-08-13T11:07:02.053Z,37.60
2022-08-13T11:09:36.557Z,37.40
2022-08-13T11:12:09.548Z,37.10
2022-08-13T11:14:39.026Z,36.70
2022-08-13T11:17:34.761Z,36.50
2022-08-13T11:20:03.528Z,36.40
2022-08-13T11:22:32.366Z,36.30
2022-08-13T11:25:18.766Z,36.30
2022-08-13T11:27:53.004Z,36.20
2022-08-13T11:30:31.528Z,36.00
2022-08-13T11:33:01.553Z,35.80
2022-08-13T11:35:38.044Z,35.50
2022-08-13T11:38:15.188Z,35.30
2022-08-13T11:40:53.299Z,35.00
2022-08-13T11:43:51.044Z,34.70
2022-08-13T11:46:14.223Z,34.40
2022-08-13T11:48:53.801Z,34.20
2022-08-13T11:51:48.864Z,34.00
2022-08-13T11:54:30.903Z,33.70
2022-08-13T11:57:08.321Z,33.50
2022-08-13T11:59:41.694Z,33.20
2022-08-13T12:02:15.298Z,32.90
2022-08-13T12:04:49.118Z,32.60
2022-08-13T12:07:26.929Z,32.40
2022-08-13T12:09:57.487Z,32.30
2022-08-13T12:12:29.349Z,32.10
2022-08-13T12:14:59.772Z,32.00
2022-08-13T12:17:49.666Z,31.90
2022-08-13T12:20:21.812Z,31.90
2022-08-13T12:22:57.476Z,31.90
2022-08-13T12:25:32.781Z,31.80
2022-08-13T12:28:27.596Z,31.80
2022-08-13T12:30:56.512Z,31.60
2022-08-13T12:33:24.276Z,31.40
2022-08-13T12:35:57.128Z,31.30
2022-08-13T12:38:30.325Z,31.20
2022-08-13T12:41:13.947Z,31.00
2022-08-13T12:44:04.878Z,30.80
2022-08-13T12:46:33.026Z,30.60
2022-08-13T12:49:01.473Z,30.50
2022-08-13T12:51:29.897Z,30.40
2022-08-13T12:54:40.124Z,30.30
2022-08-13T12:57:05.770Z,30.20
2022-08-13T13:00:02.276Z,30.10
2022-08-13T13:02:32.147Z,30.10
2022-08-13T13:05:16.634Z,30.00
2022-08-13T13:08:07.917Z,30.00
2022-08-13T13:10:41.582Z,29.90
2022-08-13T13:13:23.840Z,29.90
2022-08-13T13:18:55.170Z,29.80
2022-08-13T13:21:35.259Z,29.80
2022-08-13T13:24:17.934Z,29.80
2022-08-13T13:26:59.841Z,29.90
2022-08-13T13:29:36.578Z,30.00
2022-08-13T13:32:39.489Z,30.10
2022-08-13T13:35:07.157Z,30.40
2022-08-13T13:38:04.813Z,30.60
2022-08-13T13:40:32.168Z,30.70
2022-08-13T13:43:23.794Z,30.90
2022-08-13T13:45:47.430Z,30.90
2022-08-13T13:48:32.291Z,30.90
2022-08-13T13:51:02.262Z,30.90
2022-08-13T13:54:17.159Z,30.90
2022-08-13T13:56:21.286Z,31.10
2022-08-13T13:58:55.419Z,31.30
2022-08-13T14:01:25.161Z,31.50
2022-08-13T14:03:59.280Z,31.70
2022-08-13T14:06:33.426Z,32.00
2022-08-13T14:09:02.626Z,32.30
2022-08-13T14:11:43.557Z,32.50
2022-08-13T14:14:17.611Z,32.80
2022-08-13T14:16:47.701Z,33.10
2022-08-13T14:19:49.436Z,33.50
2022-08-13T14:22:07.323Z,34.00
2022-08-13T14:24:38.439Z,34.80
2022-08-13T14:27:08.122Z,35.60
2022-08-13T14:29:40.021Z,36.60
2022-08-13T14:32:08.025Z,37.50
2022-08-13T14:34:35.676Z,38.50
2022-08-13T14:37:21.534Z,39.40
2022-08-13T14:39:55.840Z,40.20
2022-08-13T14:43:15.135Z,41.00
2022-08-13T14:45:58.879Z,41.50
2022-08-13T14:48:30.269Z,42.00
2022-08-13T14:51:20.534Z,42.60
2022-08-13T14:53:52.337Z,43.00
2022-08-13T14:56:28.577Z,43.20
2022-08-13T14:59:00.004Z,43.10
2022-08-13T15:01:27.659Z,42.90
2022-08-13T15:04:02.696Z,42.60
2022-08-13T15:06:35.350Z,42.60
2022-08-13T15:09:10.068Z,42.70
2022-08-13T15:11:49.349Z,42.90
2022-08-13T15:14:19.483Z,43.10
2022-08-13T15:16:47.529Z,43.20
2022-08-13T15:19:18.115Z,43.20
2022-08-13T15:21:50.281Z,43.20
2022-08-13T15:24:40.911Z,43.30
2022-08-13T15:27:40.020Z,43.10
2022-08-13T15:30:18.065Z,42.80
2022-08-13T15:32:53.930Z,42.60
2022-08-13T15:35:50.898Z,42.40
2022-08-13T15:38:22.071Z,42.40
2022-08-13T15:40:52.993Z,42.40
2022-08-13T15:43:35.447Z,42.40
2022-08-13T15:46:04.647Z,42.40
2022-08-13T15:48:33.485Z,42.40
2022-08-13T15:51:00.571Z,42.50
2022-08-13T15:53:29.812Z,42.50
2022-08-13T15:56:03.491Z,42.50
2022-08-13T15:58:34.110Z,42.50
2022-08-13T16:01:20.482Z,42.60
2022-08-13T16:03:57.102Z,42.60
2022-08-13T16:06:31.862Z,42.60
2022-08-13T16:09:04.508Z,42.60
2022-08-13T16:11:43.789Z,42.40
2022-08-13T16:14:22.553Z,42.30
2022-08-13T16:16:58.618Z,42.00
2022-08-13T16:19:39.531Z,41.80
2022-08-13T16:22:19.781Z,41.40
2022-08-13T16:24:50.497Z,41.00
2022-08-13T16:27:23.830Z,40.60
2022-08-13T16:29:55.136Z,40.10
2022-08-13T16:32:29.382Z,39.60
2022-08-13T16:34:57.856Z,39.20
2022-08-13T16:37:25.467Z,38.80
2022-08-13T16:40:17.946Z,38.40
2022-08-13T16:42:48.055Z,37.90
2022-08-13T16:45:17.891Z,37.40
2022-08-13T16:47:51.277Z,37.00
2022-08-13T16:50:20.655Z,36.70
2022-08-13T16:52:51.647Z,36.30
2022-08-13T16:55:21.673Z,35.90
2022-08-13T16:57:53.704Z,35.70
2022-08-13T17:00:25.791Z,35.30
2022-08-13T17:03:18.394Z,35.10
2022-08-13T17:06:05.010Z,34.80
2022-08-13T17:08:50.987Z,34.50
2022-08-13T17:11:23.051Z,34.20
2022-08-13T17:13:52.064Z,33.90
2022-08-13T17:16:20.358Z,33.60
2022-08-13T17:18:48.963Z,33.30
2022-08-13T17:21:22.688Z,33.00
2022-08-13T17:24:09.900Z,32.80
2022-08-13T17:26:57.729Z,32.50
2022-08-13T17:29:55.673Z,32.20
2022-08-13T17:32:15.875Z,31.90
2022-08-13T17:34:43.855Z,31.60
2022-08-13T17:37:17.631Z,31.40
2022-08-13T17:39:47.502Z,31.20
2022-08-13T17:44:02.838Z,30.90
2022-08-13T17:45:28.888Z,30.70
2022-08-13T17:48:03.016Z,30.50
2022-08-13T17:50:40.436Z,30.30
2022-08-13T17:53:13.058Z,30.20
2022-08-13T17:55:52.013Z,30.00
2022-08-13T17:58:34.759Z,29.80
2022-08-13T18:01:20.970Z,29.70
2022-08-13T18:03:58.876Z,29.50
2022-08-13T18:06:32.869Z,29.30
2022-08-13T18:09:13.550Z,29.20
2022-08-13T18:11:45.332Z,29.10
2022-08-13T18:14:21.636Z,28.90
2022-08-13T18:17:29.369Z,28.80
2022-08-13T18:19:52.149Z,28.70
2022-08-13T18:22:27.859Z,28.60
2022-08-13T18:25:08.426Z,28.40
2022-08-13T18:28:05.938Z,28.30
2022-08-13T18:30:29.503Z,28.20
2022-08-13T18:33:11.691Z,28.00
2022-08-13T18:36:00.728Z,27.90
2022-08-13T18:38:34.121Z,27.70
2022-08-13T18:41:05.344Z,27.60
2022-08-13T18:43:33.734Z,27.50
2022-08-13T18:46:01.796Z,27.30
2022-08-13T18:48:33.785Z,27.20
2022-08-13T18:51:04.666Z,27.10
2022-08-13T18:53:43.869Z,26.90
2022-08-13T18:56:13.576Z,26.80
2022-08-13T18:58:44.173Z,26.70
2022-08-13T19:01:15.355Z,26.60
2022-08-13T19:04:00.656Z,26.50
2022-08-13T19:06:33.465Z,26.40
2022-08-13T19:09:07.179Z,26.20
2022-08-13T19:11:45.040Z,26.10
2022-08-13T19:14:23.637Z,25.90
2022-08-13T19:16:57.298Z,25.90
2022-08-13T19:19:54.225Z,25.70
2022-08-13T19:22:20.831Z,25.70
2022-08-13T19:24:51.702Z,25.50
2022-08-13T19:27:21.027Z,25.40
2022-08-13T19:30:03.991Z,25.30
2022-08-13T19:32:35.674Z,25.20
2022-08-13T19:35:04.956Z,25.10
2022-08-13T19:37:53.633Z,25.00
2022-08-13T19:40:35.857Z,25.00
2022-08-13T19:43:08.686Z,24.80
2022-08-13T19:45:50.226Z,24.80
2022-08-13T19:48:37.744Z,24.70
2022-08-13T19:51:24.425Z,24.60
2022-08-13T19:53:57.457Z,24.50
2022-08-13T19:56:34.958Z,24.50
2022-08-13T19:59:06.440Z,24.40
2022-08-13T20:01:36.182Z,24.30
2022-08-13T20:04:14.626Z,24.20
2022-08-13T20:06:49.202Z,24.20
2022-08-13T20:09:19.248Z,24.10
2022-08-13T20:11:47.135Z,24.10
2022-08-13T20:14:19.324Z,24.00
2022-08-13T20:16:50.506Z,23.90
2022-08-13T20:19:20.719Z,23.80
2022-08-13T20:22:09.963Z,23.80
2022-08-13T20:25:47.740Z,23.70
2022-08-13T20:27:51.064Z,23.70
2022-08-13T20:30:35.265Z,23.60
2022-08-13T20:33:05.655Z,23.60
2022-08-13T20:35:33.160Z,23.50
2022-08-13T20:38:01.934Z,23.50
2022-08-13T20:40:31.525Z,23.40
2022-08-13T20:43:06.629Z,23.40
2022-08-13T20:45:52.971Z,23.30
2022-08-13T20:48:27.549Z,23.30
2022-08-13T20:50:58.655Z,23.20
2022-08-13T20:53:26.228Z,23.10
2022-08-13T20:55:53.387Z,23.10
2022-08-13T21:00:51.763Z,23.10
2022-08-13T21:01:16.328Z,23.00
2022-08-13T21:03:45.677Z,22.90
2022-08-13T21:06:17.942Z,22.90
2022-08-13T21:08:53.313Z,22.90
2022-08-13T21:11:23.199Z,22.80
2022-08-13T21:13:50.453Z,22.80
2022-08-13T21:16:33.990Z,22.80
2022-08-13T21:19:36.739Z,22.70
2022-08-13T21:21:55.774Z,22.70
2022-08-13T21:24:28.627Z,22.60
2022-08-13T21:27:24.576Z,22.50
2022-08-13T21:29:50.850Z,22.50
2022-08-13T21:32:29.796Z,22.40
2022-08-13T21:34:58.214Z,22.40
2022-08-13T21:37:28.245Z,22.30
2022-08-13T21:39:59.669Z,22.30
2022-08-13T21:42:38.675Z,22.20
2022-08-13T21:45:17.422Z,22.20
2022-08-13T21:47:48.371Z,22.10
2022-08-13T21:50:32.250Z,22.00
2022-08-13T21:53:05.136Z,22.00
2022-08-13T21:55:51.379Z,21.90
2022-08-13T21:58:19.627Z,21.90
2022-08-13T22:00:48.443Z,21.80
2022-08-13T22:03:17.836Z,21.70
2022-08-13T22:06:05.458Z,21.70
2022-08-13T22:08:35.522Z,21.70
2022-08-13T22:11:02.574Z,21.60
2022-08-13T22:13:31.460Z,21.50
2022-08-13T22:16:04.919Z,21.50
2022-08-13T22:18:37.606Z,21.40
2022-08-13T22:21:07.495Z,21.40
2022-08-13T22:23:35.052Z,21.30
2022-08-13T22:26:02.305Z,21.30
2022-08-13T22:28:50.374Z,21.30
2022-08-13T22:31:20.724Z,21.20
2022-08-13T22:34:03.033Z,21.20
2022-08-13T22:36:32.328Z,21.10
2022-08-13T22:39:07.751Z,21.10
2022-08-13T22:41:40.757Z,21.10
2022-08-13T22:44:13.187Z,21.10
2022-08-13T22:46:43.705Z,21.00
2022-08-13T22:49:14.604Z,21.00
2022-08-13T22:51:51.504Z,20.90
2022-08-13T22:54:20.393Z,20.90
2022-08-13T22:56:47.973Z,20.90
2022-08-13T22:59:15.243Z,20.80
2022-08-13T23:01:46.629Z,20.80
2022-08-13T23:04:21.962Z,20.80
2022-08-13T23:06:51.912Z,20.70
2022-08-13T23:09:20.134Z,20.70
2022-08-13T23:11:50.404Z,20.70
2022-08-13T23:14:17.258Z,20.60
2022-08-13T23:16:45.326Z,20.60
2022-08-13T23:19:16.190Z,20.50
2022-08-13T23:21:44.034Z,20.50
2022-08-13T23:24:15.845Z,20.40
2022-08-13T23:26:43.176Z,20.40
2022-08-13T23:29:10.197Z,20.30
2022-08-13T23:31:38.578Z,20.30
2022-08-13T23:34:05.882Z,20.30
2022-08-13T23:36:37.256Z,20.30
2022-08-13T23:39:08.222Z,20.20
2022-08-13T23:41:36.170Z,20.20
2022-08-13T23:44:10.862Z,20.20
2022-08-13T23:46:49.042Z,20.20
2022-08-13T23:49:25.390Z,20.20
2022-08-13T23:51:56.353Z,20.20
2022-08-13T23:54:23.956Z,20.10
2022-08-13T23:56:53.692Z,20.10
2022-08-13T23:59:29.972Z,20.10
